Time;durP1;ratioP1;P1;durP2;ratioP2;P2;SDS_P1;SDS_P2;PMS_P1;PMS_P2;Temp;Humidity;BMP_temperature;BMP_pressure;BME280_temperature;BME280_humidity;BME280_pressure;Samples;Min_cycle;Max_cycle;Signal;HPM_P1;HPM_P2
2022/03/28 00:01:48;;;;;;;30.23;27.75;;;8.70;66.90;;;;;;5096610;28;20220;-73
2022/03/28 00:04:15;;;;;;;31.80;28.92;;;8.60;67.10;;;;;;5096500;28;20689;-73
2022/03/28 00:06:43;;;;;;;30.60;28.25;;;8.60;67.30;;;;;;5096544;28;20201;-73
2022/03/28 00:09:10;;;;;;;29.95;27.65;;;8.50;67.50;;;;;;5096468;28;20201;-73
2022/03/28 00:11:37;;;;;;;30.40;28.00;;;8.50;67.60;;;;;;5096485;28;20201;-73
2022/03/28 00:14:04;;;;;;;30.17;28.00;;;8.50;67.60;;;;;;5096594;28;20242;-73
2022/03/28 00:16:32;;;;;;;31.17;28.60;;;8.40;67.70;;;;;;5096347;28;20201;-74
2022/03/28 00:18:59;;;;;;;30.63;28.00;;;8.40;67.70;;;;;;5096216;28;20293;-74
2022/03/28 00:21:26;;;;;;;30.05;27.80;;;8.50;67.40;;;;;;5096061;28;20619;-73
2022/03/28 00:23:54;;;;;;;31.52;29.02;;;8.50;67.40;;;;;;5096354;28;20219;-73
2022/03/28 00:26:21;;;;;;;29.20;26.60;;;8.40;67.50;;;;;;5096255;28;20231;-73
2022/03/28 00:28:48;;;;;;;31.30;28.63;;;8.30;67.60;;;;;;5096106;28;20720;-73
2022/03/28 00:31:15;;;;;;;31.80;29.10;;;8.40;67.50;;;;;;5095893;28;20200;-73
2022/03/28 00:33:42;;;;;;;31.60;28.63;;;8.30;67.70;;;;;;5096104;28;20220;-74
2022/03/28 00:36:09;;;;;;;30.38;28.25;;;8.20;68.00;;;;;;5096067;28;20705;-74
2022/03/28 00:38:37;;;;;;;30.50;28.13;;;8.20;68.20;;;;;;5095965;28;20196;-73
2022/03/28 00:41:05;;;;;;;29.30;26.95;;;8.10;68.40;;;;;;5095913;28;20193;-73
2022/03/28 00:43:37;;;;;;;29.70;27.50;;;8.10;68.60;;;;;;5095639;28;20223;-73
2022/03/28 00:46:04;;;;;;;29.48;27.13;;;8.00;68.70;;;;;;5095907;28;20250;-74
2022/03/28 00:48:31;;;;;;;29.95;27.60;;;8.00;68.60;;;;;;5095818;28;20287;-74
2022/03/28 00:50:58;;;;;;;29.80;27.50;;;8.10;68.50;;;;;;5095696;28;20232;-73
2022/03/28 00:53:26;;;;;;;31.42;28.75;;;8.00;68.50;;;;;;5095812;28;20217;-73
2022/03/28 00:55:54;;;;;;;31.15;28.77;;;8.00;68.60;;;;;;5095637;28;20536;-73
2022/03/28 00:58:22;;;;;;;30.90;28.50;;;8.00;68.70;;;;;;5095437;28;20218;-73
2022/03/28 01:00:49;;;;;;;30.45;28.15;;;7.90;68.70;;;;;;5095418;28;20282;-73
2022/03/28 01:03:16;;;;;;;29.77;27.52;;;8.00;68.80;;;;;;5095392;28;20319;-73
2022/03/28 01:05:44;;;;;;;31.08;28.40;;;7.90;69.00;;;;;;5095473;28;20197;-73
2022/03/28 01:08:11;;;;;;;31.80;29.23;;;7.80;69.50;;;;;;5094055;28;20192;-73
2022/03/28 01:10:39;;;;;;;30.02;27.98;;;7.70;69.60;;;;;;5095190;28;20192;-73
2022/03/28 01:13:07;;;;;;;30.35;28.00;;;7.60;69.90;;;;;;5095285;28;20222;-73
2022/03/28 01:15:35;;;;;;;32.38;29.67;;;7.60;69.90;;;;;;5095274;28;20196;-73
2022/03/28 01:18:07;;;;;;;32.85;30.15;;;7.60;69.80;;;;;;5095270;28;20200;-73
2022/03/28 01:20:41;;;;;;;31.42;28.45;;;7.60;69.80;;;;;;5095047;28;20644;-73
2022/03/28 01:23:10;;;;;;;31.20;28.63;;;7.50;70.00;;;;;;5094992;28;20310;-73
2022/03/28 01:25:37;;;;;;;31.13;28.67;;;7.50;70.20;;;;;;5095040;28;20211;-73
2022/03/28 01:28:05;;;;;;;31.58;28.88;;;7.60;69.80;;;;;;5095036;28;20633;-73
2022/03/28 01:30:33;;;;;;;31.75;28.75;;;7.60;69.70;;;;;;5094800;28;20748;-73
2022/03/28 01:33:01;;;;;;;30.60;28.23;;;7.50;69.80;;;;;;5094817;28;20298;-73
2022/03/28 01:35:30;;;;;;;31.80;29.30;;;7.50;69.80;;;;;;5094894;28;20199;-73
2022/03/28 01:37:57;;;;;;;31.48;28.63;;;7.50;69.80;;;;;;5094815;28;20203;-73
2022/03/28 01:40:26;;;;;;;30.67;28.10;;;7.40;69.90;;;;;;5094584;28;20648;-72
2022/03/28 01:42:53;;;;;;;31.33;28.85;;;7.40;69.90;;;;;;5094645;28;20306;-73
2022/03/28 01:45:20;;;;;;;31.70;29.05;;;7.40;69.90;;;;;;5094740;28;20284;-73
2022/03/28 01:47:48;;;;;;;32.78;29.83;;;7.50;69.80;;;;;;5094653;28;20203;-73
2022/03/28 01:50:14;;;;;;;33.08;29.85;;;7.40;69.70;;;;;;5094502;28;20196;-73
2022/03/28 01:52:42;;;;;;;31.58;29.13;;;7.40;69.80;;;;;;5094529;28;20211;-72
2022/03/28 01:55:10;;;;;;;30.90;28.55;;;7.40;69.80;;;;;;5094556;28;20202;-73
2022/03/28 01:57:39;;;;;;;32.15;29.35;;;7.40;69.70;;;;;;5094460;28;20199;-73
2022/03/28 02:00:08;;;;;;;31.70;29.05;;;7.30;69.80;;;;;;5094308;28;20292;-73
2022/03/28 02:02:35;;;;;;;33.03;29.20;;;7.30;70.00;;;;;;5094157;28;20233;-73
2022/03/28 02:05:02;;;;;;;29.50;27.30;;;7.20;70.10;;;;;;5094458;28;20276;-73
2022/03/28 02:07:29;;;;;;;31.23;28.27;;;7.20;70.10;;;;;;5094383;28;20231;-73
2022/03/28 02:09:56;;;;;;;30.42;27.83;;;7.20;70.00;;;;;;5093983;28;20697;-73
2022/03/28 02:12:23;;;;;;;31.67;29.15;;;7.30;69.90;;;;;;5094183;28;20559;-73
2022/03/28 02:14:51;;;;;;;30.20;27.83;;;7.20;69.70;;;;;;5094191;28;20665;-73
2022/03/28 02:17:18;;;;;;;33.13;30.17;;;7.20;69.80;;;;;;5094111;28;20197;-73
2022/03/28 02:19:45;;;;;;;30.73;28.23;;;7.20;69.60;;;;;;5093284;28;20203;-73
2022/03/28 02:22:12;;;;;;;31.13;28.55;;;7.20;69.70;;;;;;5093776;28;20765;-73
2022/03/28 02:24:39;;;;;;;33.47;30.65;;;7.20;69.60;;;;;;5093947;28;20659;-73
2022/03/28 02:27:07;;;;;;;32.10;29.35;;;7.20;69.30;;;;;;5093974;28;20266;-73
2022/03/28 02:29:34;;;;;;;33.53;30.55;;;7.20;69.20;;;;;;5093704;28;20200;-73
2022/03/28 02:32:03;;;;;;;31.52;28.77;;;7.30;69.10;;;;;;5093697;28;20219;-73
2022/03/28 02:34:30;;;;;;;31.13;28.67;;;7.20;69.30;;;;;;5093947;28;20211;-73
2022/03/28 02:36:57;;;;;;;31.77;28.95;;;7.20;69.40;;;;;;5093831;28;20200;-73
2022/03/28 02:39:24;;;;;;;32.17;29.60;;;7.10;69.60;;;;;;5093659;28;20676;-73
2022/03/28 02:41:51;;;;;;;31.77;28.95;;;7.20;69.50;;;;;;5093647;28;20660;-73
2022/03/28 02:44:18;;;;;;;32.50;29.50;;;7.20;69.20;;;;;;5093393;28;20219;-73
2022/03/28 02:46:45;;;;;;;31.17;28.52;;;7.20;69.00;;;;;;5093643;28;20286;-73
2022/03/28 02:49:14;;;;;;;30.15;27.75;;;7.20;68.70;;;;;;5093333;28;20202;-73
2022/03/28 02:51:41;;;;;;;31.27;28.75;;;7.30;68.20;;;;;;5093366;28;20288;-73
2022/03/28 02:54:08;;;;;;;32.20;29.45;;;7.20;68.30;;;;;;5093360;28;20196;-73
2022/03/28 02:56:35;;;;;;;31.42;28.75;;;7.20;68.00;;;;;;5093380;28;20661;-73
2022/03/28 02:59:02;;;;;;;30.15;27.63;;;7.20;68.00;;;;;;5093116;28;20209;-73
2022/03/28 03:01:29;;;;;;;31.02;28.63;;;7.20;67.90;;;;;;5093362;28;20196;-72
2022/03/28 03:03:55;;;;;;;32.47;29.85;;;7.20;68.00;;;;;;5093147;28;20259;-72
2022/03/28 03:06:24;;;;;;;32.65;29.80;;;7.10;68.10;;;;;;5093305;28;20777;-73
2022/03/28 03:08:51;;;;;;;31.38;28.92;;;7.10;68.30;;;;;;5093274;28;20276;-73
2022/03/28 03:11:18;;;;;;;33.97;31.25;;;7.10;68.10;;;;;;5092963;28;20203;-73
2022/03/28 03:13:46;;;;;;;32.47;29.77;;;7.10;68.00;;;;;;5092927;28;20216;-73
2022/03/28 03:16:13;;;;;;;32.72;30.10;;;7.00;68.10;;;;;;5093041;28;20192;-73
2022/03/28 03:18:40;;;;;;;33.92;31.10;;;7.00;68.30;;;;;;5092981;28;20215;-73
2022/03/28 03:21:07;;;;;;;33.78;31.08;;;7.00;68.50;;;;;;5092811;28;20209;-72
2022/03/28 03:23:35;;;;;;;33.33;29.80;;;7.00;68.60;;;;;;5092888;28;20224;-73
2022/03/28 03:26:02;;;;;;;32.00;29.23;;;6.90;68.90;;;;;;5092861;28;21086;-73
2022/03/28 03:28:29;;;;;;;32.15;29.65;;;6.80;69.10;;;;;;5092676;28;20672;-73
2022/03/28 03:30:56;;;;;;;33.95;31.45;;;6.80;69.30;;;;;;5092033;28;20622;-73
2022/03/28 03:33:23;;;;;;;32.38;29.58;;;6.80;69.30;;;;;;5092714;28;20273;-73
2022/03/28 03:35:50;;;;;;;32.47;29.80;;;6.60;69.60;;;;;;5092724;28;20200;-73
2022/03/28 03:38:17;;;;;;;36.45;33.22;;;6.60;70.00;;;;;;5092754;28;20557;-73
2022/03/28 03:40:45;;;;;;;33.20;30.38;;;6.60;70.20;;;;;;5092228;28;20283;-73
2022/03/28 03:43:12;;;;;;;33.90;30.92;;;6.50;70.20;;;;;;5092357;28;20227;-73
2022/03/28 03:45:39;;;;;;;33.80;31.00;;;6.50;70.70;;;;;;5092634;28;20223;-73
2022/03/28 03:48:07;;;;;;;32.65;30.05;;;6.50;70.60;;;;;;5092642;28;20196;-73
2022/03/28 03:50:33;;;;;;;31.13;28.83;;;6.50;70.50;;;;;;5092407;28;20227;-73
2022/03/28 03:53:00;;;;;;;33.38;30.20;;;6.40;70.80;;;;;;5092585;28;20211;-73
2022/03/28 03:55:27;;;;;;;31.27;28.85;;;6.40;70.90;;;;;;5092424;28;20227;-73
2022/03/28 03:57:55;;;;;;;33.78;31.30;;;6.40;71.30;;;;;;5092402;28;20200;-73
2022/03/28 04:00:23;;;;;;;33.22;30.52;;;6.40;71.70;;;;;;5092390;28;20199;-73
2022/03/28 04:02:50;;;;;;;34.17;31.52;;;6.40;71.60;;;;;;5092122;28;20698;-73
2022/03/28 04:05:17;;;;;;;33.45;30.73;;;6.50;71.40;;;;;;5092614;28;20727;-73
2022/03/28 04:07:44;;;;;;;32.97;30.20;;;6.50;71.40;;;;;;5092424;28;20592;-74
2022/03/28 04:10:12;;;;;;;33.72;30.33;;;6.50;71.00;;;;;;5092149;28;20199;-73
2022/03/28 04:12:39;;;;;;;33.47;30.50;;;6.40;70.90;;;;;;5092371;28;20223;-73
2022/03/28 04:15:10;;;;;;;32.70;30.00;;;6.40;71.00;;;;;;5092393;28;20196;-73
2022/03/28 04:17:41;;;;;;;32.72;30.00;;;6.40;70.90;;;;;;5092457;28;20237;-73
2022/03/28 04:20:10;;;;;;;32.35;29.73;;;6.50;70.90;;;;;;5092078;28;20207;-73
2022/03/28 04:22:37;;;;;;;32.17;29.55;;;6.40;70.80;;;;;;5092249;28;20211;-73
2022/03/28 04:25:04;;;;;;;34.63;32.03;;;6.40;71.00;;;;;;5092362;28;20204;-73
2022/03/28 04:27:31;;;;;;;34.42;31.63;;;6.40;71.30;;;;;;5092354;28;20223;-73
2022/03/28 04:29:58;;;;;;;32.60;30.10;;;6.40;71.00;;;;;;5092101;28;20253;-74
2022/03/28 04:32:27;;;;;;;32.95;29.83;;;6.50;70.80;;;;;;5092235;28;20220;-74
2022/03/28 04:34:53;;;;;;;32.85;30.13;;;6.40;70.80;;;;;;5092230;28;20217;-73
2022/03/28 04:37:20;;;;;;;33.60;30.90;;;6.40;71.10;;;;;;5092167;28;20242;-73
2022/03/28 04:39:47;;;;;;;34.45;31.42;;;6.30;71.60;;;;;;5092040;28;20207;-73
2022/03/28 04:42:14;;;;;;;33.65;30.63;;;6.20;71.60;;;;;;5092547;28;20216;-73
2022/03/28 04:44:41;;;;;;;33.58;30.58;;;6.10;71.60;;;;;;5095884;28;20222;-73
2022/03/28 04:47:08;;;;;;;33.08;30.45;;;6.20;71.30;;;;;;5095851;28;20235;-73
2022/03/28 04:49:37;;;;;;;34.40;31.45;;;6.20;71.30;;;;;;5095623;28;20202;-73
2022/03/28 04:52:04;;;;;;;33.47;30.13;;;6.10;71.80;;;;;;5095750;28;20297;-73
2022/03/28 04:54:32;;;;;;;35.13;32.33;;;6.00;72.60;;;;;;5095655;28;20553;-73
2022/03/28 04:56:59;;;;;;;33.95;31.35;;;6.00;72.90;;;;;;5095656;28;20648;-73
2022/03/28 04:59:28;;;;;;;35.03;32.13;;;6.00;72.50;;;;;;5095135;28;20673;-73
2022/03/28 05:01:55;;;;;;;34.30;31.52;;;5.90;72.40;;;;;;5095597;28;20704;-72
2022/03/28 05:04:22;;;;;;;36.78;33.60;;;6.00;72.20;;;;;;5095476;28;20587;-72
2022/03/28 05:06:50;;;;;;;35.30;32.22;;;6.10;72.20;;;;;;5095802;28;20561;-72
2022/03/28 05:09:17;;;;;;;81.30;44.92;;;6.10;71.80;;;;;;5095351;28;20202;-73
2022/03/28 05:11:44;;;;;;;37.83;34.10;;;6.10;71.80;;;;;;5095536;28;20291;-73
2022/03/28 05:14:12;;;;;;;35.42;32.63;;;6.10;72.10;;;;;;5095423;28;20278;-73
2022/03/28 05:16:38;;;;;;;34.72;31.65;;;6.10;71.80;;;;;;5095278;28;20770;-73
2022/03/28 05:19:05;;;;;;;34.80;31.60;;;6.10;71.80;;;;;;5095028;28;20203;-73
2022/03/28 05:21:32;;;;;;;36.60;33.13;;;6.10;71.80;;;;;;5095119;28;20199;-73
2022/03/28 05:24:00;;;;;;;34.30;31.50;;;6.10;72.10;;;;;;5095225;28;20227;-73
2022/03/28 05:26:27;;;;;;;43.80;39.17;;;6.10;72.20;;;;;;5095327;28;20256;-73
2022/03/28 05:28:54;;;;;;;37.00;33.05;;;6.10;72.10;;;;;;5095032;28;20672;-73
2022/03/28 05:31:21;;;;;;;38.55;35.08;;;6.10;72.10;;;;;;5094855;28;20196;-73
2022/03/28 05:33:48;;;;;;;37.95;34.53;;;6.20;71.70;;;;;;5094961;28;20726;-73
2022/03/28 05:36:15;;;;;;;37.83;33.55;;;6.20;71.80;;;;;;5095035;28;20202;-72
2022/03/28 05:38:43;;;;;;;36.67;33.58;;;6.10;72.00;;;;;;5095003;28;20280;-72
2022/03/28 05:41:11;;;;;;;35.53;32.40;;;6.20;71.80;;;;;;5094712;28;20200;-73
2022/03/28 05:43:39;;;;;;;42.03;35.53;;;6.20;71.70;;;;;;5094687;28;20223;-72
2022/03/28 05:46:06;;;;;;;35.85;32.45;;;6.30;71.40;;;;;;5094838;28;20369;-73
2022/03/28 05:48:33;;;;;;;36.75;33.45;;;6.40;71.20;;;;;;5094713;28;20200;-73
2022/03/28 05:51:01;;;;;;;35.83;32.83;;;6.50;71.00;;;;;;5094601;28;20567;-73
2022/03/28 05:53:28;;;;;;;36.00;32.67;;;6.50;70.80;;;;;;5094633;28;20219;-73
2022/03/28 05:55:55;;;;;;;35.33;32.40;;;6.50;70.70;;;;;;5093855;28;20224;-73
2022/03/28 05:58:24;;;;;;;37.05;33.58;;;6.60;70.60;;;;;;5094246;28;20246;-73
2022/03/28 06:00:51;;;;;;;36.53;33.42;;;6.60;70.60;;;;;;5094292;28;20196;-73
2022/03/28 06:03:18;;;;;;;37.55;34.00;;;6.70;70.40;;;;;;5094205;28;20222;-73
2022/03/28 06:05:45;;;;;;;41.83;37.22;;;6.80;70.20;;;;;;5094498;28;20207;-73
2022/03/28 06:08:12;;;;;;;37.33;33.88;;;6.70;70.40;;;;;;5094199;28;20200;-73
2022/03/28 06:10:39;;;;;;;41.00;37.50;;;6.90;70.10;;;;;;5094183;28;20658;-72
2022/03/28 06:13:06;;;;;;;37.28;33.55;;;7.00;69.60;;;;;;5094273;28;20216;-73
2022/03/28 06:15:36;;;;;;;37.47;34.42;;;7.10;69.10;;;;;;5094137;28;20257;-73
2022/03/28 06:18:04;;;;;;;37.53;34.17;;;7.30;68.80;;;;;;5094185;28;20204;-73
2022/03/28 06:20:32;;;;;;;38.10;32.25;;;7.40;68.40;;;;;;5093782;28;20208;-73
2022/03/28 06:23:00;;;;;;;37.47;34.10;;;7.50;69.60;;;;;;5094226;28;20649;-73
2022/03/28 06:25:27;;;;;;;38.97;35.38;;;7.70;68.70;;;;;;5093693;28;20252;-73
2022/03/28 06:27:54;;;;;;;36.83;33.72;;;7.70;68.40;;;;;;5094162;28;20216;-73
2022/03/28 06:30:20;;;;;;;38.92;35.83;;;7.80;69.00;;;;;;5093768;28;20198;-73
2022/03/28 06:32:49;;;;;;;39.20;35.25;;;7.90;68.90;;;;;;5093888;28;20712;-73
2022/03/28 06:35:16;;;;;;;35.90;32.75;;;8.00;67.20;;;;;;5093848;28;20202;-73
2022/03/28 06:37:43;;;;;;;37.88;34.10;;;8.00;66.50;;;;;;5093626;28;20203;-73
2022/03/28 06:40:11;;;;;;;37.05;33.65;;;8.10;66.20;;;;;;5093357;28;20658;-73
2022/03/28 06:42:37;;;;;;;43.38;34.88;;;8.20;66.00;;;;;;5093717;28;20227;-73
2022/03/28 06:45:05;;;;;;;36.65;33.30;;;8.10;65.90;;;;;;5093543;28;20236;-73
2022/03/28 06:47:34;;;;;;;42.63;36.25;;;8.20;65.90;;;;;;5093524;28;20200;-73
2022/03/28 06:50:02;;;;;;;38.25;35.00;;;8.30;65.70;;;;;;5093350;28;20284;-73
2022/03/28 06:52:29;;;;;;;44.30;36.95;;;8.40;65.50;;;;;;5093391;28;20732;-72
2022/03/28 06:54:56;;;;;;;45.05;39.30;;;8.40;65.40;;;;;;5093497;28;20569;-73
2022/03/28 06:57:23;;;;;;;38.95;35.03;;;8.60;65.00;;;;;;5093254;28;20293;-73
2022/03/28 06:59:50;;;;;;;47.45;41.72;;;8.80;65.10;;;;;;5093177;28;20222;-73
2022/03/28 07:02:17;;;;;;;38.58;34.97;;;8.90;64.50;;;;;;5093589;28;20226;-73
2022/03/28 07:04:44;;;;;;;43.95;35.60;;;9.00;64.20;;;;;;5092877;28;20214;-73
2022/03/28 07:07:12;;;;;;;139.38;57.30;;;9.20;63.50;;;;;;5093117;28;20199;-73
2022/03/28 07:09:39;;;;;;;57.05;41.72;;;9.40;63.20;;;;;;5092996;28;20625;-73
2022/03/28 07:12:07;;;;;;;37.85;34.40;;;9.60;62.80;;;;;;5093104;28;20643;-73
2022/03/28 07:14:34;;;;;;;36.92;33.55;;;9.80;62.30;;;;;;5093149;28;20197;-74
2022/03/28 07:17:01;;;;;;;40.03;35.70;;;9.90;62.10;;;;;;5093074;28;20287;-73
2022/03/28 07:19:28;;;;;;;37.60;34.35;;;10.00;62.00;;;;;;5092540;28;20213;-74
2022/03/28 07:21:55;;;;;;;40.00;36.15;;;10.10;61.40;;;;;;5092861;28;20229;-73
2022/03/28 07:24:23;;;;;;;37.50;33.95;;;10.20;61.20;;;;;;5092809;28;20226;-73
2022/03/28 07:26:50;;;;;;;37.90;34.50;;;10.40;60.70;;;;;;5092890;28;20210;-73
2022/03/28 07:29:17;;;;;;;38.55;34.97;;;10.50;60.50;;;;;;5092597;28;20659;-73
2022/03/28 07:31:45;;;;;;;38.53;35.22;;;10.60;60.50;;;;;;5092666;28;20675;-73
2022/03/28 07:36:56;;;;;;;38.10;34.90;;;10.70;59.10;;;;;;5092853;28;20889;-73
2022/03/28 07:39:24;;;;;;;40.13;36.27;;;10.90;59.00;;;;;;5092525;28;20546;-74
2022/03/28 07:41:52;;;;;;;56.10;41.10;;;11.00;58.90;;;;;;5092608;28;20453;-73
2022/03/28 07:44:20;;;;;;;38.27;34.63;;;11.00;58.60;;;;;;5092517;28;20515;-73
2022/03/28 07:46:48;;;;;;;39.77;35.67;;;11.10;58.40;;;;;;5092480;28;20452;-73
2022/03/28 07:49:16;;;;;;;41.57;37.67;;;11.30;58.10;;;;;;5092444;28;20453;-73
2022/03/28 07:51:43;;;;;;;49.57;42.10;;;11.30;57.80;;;;;;5092576;28;20849;-73
2022/03/28 07:54:10;;;;;;;39.20;35.63;;;11.20;58.10;;;;;;5092577;28;20447;-73
2022/03/28 07:56:39;;;;;;;39.40;35.80;;;11.40;58.00;;;;;;5092514;28;20458;-74
2022/03/28 07:59:06;;;;;;;39.43;35.83;;;11.60;57.40;;;;;;5092093;28;20465;-74
2022/03/28 08:01:33;;;;;;;40.30;36.50;;;11.70;57.20;;;;;;5092320;28;20460;-73
2022/03/28 08:04:00;;;;;;;40.90;37.43;;;11.90;56.70;;;;;;5092401;28;20481;-74
2022/03/28 08:06:27;;;;;;;40.07;36.00;;;12.00;56.20;;;;;;5092410;28;20450;-73
2022/03/28 08:08:53;;;;;;;39.10;35.23;;;12.20;55.90;;;;;;5092333;28;20453;-73
2022/03/28 08:11:21;;;;;;;42.30;38.17;;;12.40;55.40;;;;;;5092219;28;21011;-73
2022/03/28 08:13:50;;;;;;;46.00;41.20;;;12.40;54.90;;;;;;5092254;28;20891;-73
2022/03/28 08:16:17;;;;;;;57.80;42.63;;;12.50;55.20;;;;;;5092335;28;20460;-73
2022/03/28 08:18:43;;;;;;;41.67;37.90;;;12.50;54.70;;;;;;5095104;28;20943;-73
2022/03/28 08:21:11;;;;;;;56.13;42.60;;;12.60;54.60;;;;;;5096250;28;20453;-73
2022/03/28 08:23:38;;;;;;;42.33;37.60;;;12.60;54.30;;;;;;5096392;28;20502;-73
2022/03/28 08:26:05;;;;;;;66.37;44.27;;;12.70;54.30;;;;;;5096092;28;20509;-73
2022/03/28 08:28:32;;;;;;;41.33;37.30;;;12.80;53.70;;;;;;5096199;28;20526;-73
2022/03/28 08:31:00;;;;;;;42.67;38.73;;;12.90;53.90;;;;;;5096068;28;20545;-74
2022/03/28 08:33:27;;;;;;;43.47;39.77;;;13.00;53.40;;;;;;5096179;28;20846;-73
2022/03/28 08:35:54;;;;;;;42.77;38.60;;;13.00;53.40;;;;;;5096123;28;20438;-74
2022/03/28 08:38:21;;;;;;;49.90;41.20;;;13.20;52.90;;;;;;5096000;28;21004;-74
2022/03/28 08:40:48;;;;;;;41.73;37.23;;;13.40;52.40;;;;;;5095758;28;20961;-74
2022/03/28 08:43:18;;;;;;;40.93;37.03;;;13.60;52.00;;;;;;5095962;28;20893;-73
2022/03/28 08:45:46;;;;;;;41.57;37.57;;;13.70;51.40;;;;;;5095839;28;20481;-73
2022/03/28 08:48:15;;;;;;;41.03;37.43;;;13.90;51.00;;;;;;5095810;28;20958;-74
2022/03/28 08:50:44;;;;;;;40.73;37.00;;;14.10;50.70;;;;;;5095849;28;20864;-74
2022/03/28 08:53:12;;;;;;;44.47;39.70;;;14.20;50.40;;;;;;5095680;28;20513;-74
2022/03/28 08:55:43;;;;;;;42.60;38.00;;;14.20;50.00;;;;;;5095560;28;20830;-74
2022/03/28 08:58:10;;;;;;;41.67;37.90;;;14.20;50.30;;;;;;5095546;28;20450;-73
2022/03/28 09:00:38;;;;;;;41.83;37.57;;;14.30;50.30;;;;;;5095559;28;20536;-74
2022/03/28 09:03:05;;;;;;;41.03;36.93;;;14.50;50.00;;;;;;5095335;28;20469;-73
2022/03/28 09:05:38;;;;;;;42.57;37.67;;;14.70;50.00;;;;;;5095444;28;20499;-73
2022/03/28 09:08:07;;;;;;;47.93;41.07;;;14.80;49.50;;;;;;5095524;28;20475;-73
2022/03/28 09:10:37;;;;;;;41.53;37.73;;;14.80;49.00;;;;;;5095364;28;20460;-73
2022/03/28 09:13:06;;;;;;;39.50;36.10;;;14.90;48.90;;;;;;5095367;28;20565;-73
2022/03/28 09:16:01;;;;;;;40.33;36.23;;;15.00;48.80;;;;;;5095491;28;20442;-73
2022/03/28 09:18:29;;;;;;;43.57;38.83;;;15.20;48.90;;;;;;5081589;28;20989;-73
2022/03/28 09:20:59;;;;;;;69.33;48.43;;;15.20;48.90;;;;;;5095966;28;20469;-73
2022/03/28 09:23:38;;;;;;;44.33;40.00;;;15.10;48.90;;;;;;5095496;28;21052;-73
2022/03/28 09:26:11;;;;;;;40.83;37.03;;;15.20;49.10;;;;;;5095265;28;20572;-74
2022/03/28 09:28:47;;;;;;;43.33;39.10;;;15.40;48.60;;;;;;5094508;28;20458;-74
2022/03/28 09:31:24;;;;;;;40.07;36.33;;;15.40;47.90;;;;;;5094637;28;20481;-73
2022/03/28 09:34:03;;;;;;;41.10;37.50;;;15.60;47.50;;;;;;5095195;28;20542;-73
2022/03/28 09:36:49;;;;;;;41.50;37.80;;;15.60;47.50;;;;;;5095358;28;20450;-74
2022/03/28 09:39:19;;;;;;;43.37;38.90;;;15.80;47.10;;;;;;5095072;28;20460;-72
2022/03/28 09:41:57;;;;;;;41.57;37.60;;;15.90;47.00;;;;;;5094790;28;20453;-73
2022/03/28 09:44:36;;;;;;;40.63;37.00;;;15.90;46.60;;;;;;5094908;28;20458;-73
2022/03/28 09:47:09;;;;;;;41.20;37.40;;;15.70;46.90;;;;;;5094827;28;20485;-73
2022/03/28 09:49:36;;;;;;;43.20;38.97;;;15.90;46.90;;;;;;5094535;28;21063;-73
2022/03/28 09:52:07;;;;;;;44.03;39.63;;;16.00;46.30;;;;;;5094543;28;20473;-73
2022/03/28 09:54:45;;;;;;;42.77;38.73;;;16.00;46.30;;;;;;5094719;28;20796;-73
2022/03/28 09:57:14;;;;;;;41.77;38.10;;;16.10;46.30;;;;;;5094518;28;20533;-73
2022/03/28 09:59:42;;;;;;;43.20;39.20;;;16.20;46.10;;;;;;5094005;28;21049;-73
2022/03/28 10:02:22;;;;;;;43.97;39.40;;;16.40;45.80;;;;;;5094403;28;20480;-73
2022/03/28 10:04:50;;;;;;;41.93;38.17;;;16.60;45.40;;;;;;5094139;28;20994;-73
2022/03/28 10:07:19;;;;;;;43.03;39.27;;;16.70;45.40;;;;;;5094224;28;20488;-73
2022/03/28 10:09:47;;;;;;;41.33;37.50;;;16.90;45.00;;;;;;5094111;28;20460;-73
2022/03/28 10:12:14;;;;;;;42.90;39.03;;;17.10;44.50;;;;;;5094180;28;20566;-74
2022/03/28 10:14:42;;;;;;;41.90;38.07;;;17.20;44.00;;;;;;5094170;28;20454;-73
2022/03/28 10:17:09;;;;;;;48.83;40.93;;;17.20;44.20;;;;;;5094167;28;20962;-73
2022/03/28 10:19:38;;;;;;;41.10;37.33;;;17.30;44.00;;;;;;5093842;28;20506;-73
2022/03/28 10:22:08;;;;;;;49.93;43.80;;;17.40;44.20;;;;;;5093859;28;20475;-73
2022/03/28 10:24:37;;;;;;;63.27;51.27;;;17.50;44.20;;;;;;5094027;28;20532;-73
2022/03/28 10:27:06;;;;;;;46.40;41.77;;;17.30;44.80;;;;;;5093905;28;20460;-73
2022/03/28 10:29:38;;;;;;;43.77;39.67;;;17.40;44.90;;;;;;5093691;28;20449;-74
2022/03/28 10:32:09;;;;;;;44.20;39.70;;;17.70;44.50;;;;;;5093936;28;20465;-73
2022/03/28 10:34:45;;;;;;;48.23;43.50;;;17.70;44.50;;;;;;5093856;28;20456;-73
2022/03/28 10:37:28;;;;;;;44.40;40.00;;;17.70;44.70;;;;;;5093914;28;20882;-73
2022/03/28 10:40:22;;;;;;;45.00;40.20;;;17.90;44.70;;;;;;5091993;28;20544;-73
2022/03/28 10:42:52;;;;;;;42.97;38.50;;;17.90;44.80;;;;;;5093518;28;20477;-74
2022/03/28 10:45:21;;;;;;;44.70;40.60;;;18.00;44.80;;;;;;5093730;28;20480;-74
2022/03/28 10:47:52;;;;;;;46.90;42.00;;;18.10;44.60;;;;;;5093528;28;20576;-73
2022/03/28 10:50:20;;;;;;;42.97;39.10;;;18.20;44.50;;;;;;5093433;28;20456;-74
2022/03/28 10:53:08;;;;;;;42.37;38.47;;;18.40;44.20;;;;;;5093432;28;20473;-73
2022/03/28 10:55:38;;;;;;;44.30;40.20;;;18.60;43.90;;;;;;5093465;28;20445;-74
2022/03/28 10:58:13;;;;;;;44.83;40.87;;;18.70;43.90;;;;;;5093181;28;20549;-73
2022/03/28 11:01:01;;;;;;;41.97;38.27;;;18.80;43.60;;;;;;5093034;28;20481;-74
2022/03/28 11:03:37;;;;;;;44.33;39.83;;;18.90;43.40;;;;;;5093190;28;20495;-74
2022/03/28 11:06:05;;;;;;;43.50;39.40;;;19.00;42.90;;;;;;5093325;28;20556;-73
2022/03/28 11:08:33;;;;;;;42.27;38.37;;;19.10;42.60;;;;;;5093128;28;20479;-74
2022/03/28 11:11:18;;;;;;;43.57;39.53;;;19.30;41.80;;;;;;5092987;28;20939;-73
2022/03/28 11:13:56;;;;;;;47.90;42.77;;;19.30;41.60;;;;;;5093242;28;20469;-73
2022/03/28 11:16:40;;;;;;;41.20;37.77;;;19.30;41.20;;;;;;5093280;28;20449;-73
2022/03/28 11:19:29;;;;;;;47.73;42.97;;;19.40;40.60;;;;;;5093052;28;20468;-73
2022/03/28 11:21:58;;;;;;;44.80;41.03;;;19.30;41.10;;;;;;5093290;28;20572;-73
2022/03/28 11:24:51;;;;;;;43.93;39.77;;;19.30;40.90;;;;;;5094529;28;21012;-73
2022/03/28 11:27:21;;;;;;;43.20;39.37;;;19.30;40.60;;;;;;5079576;28;20450;-74
2022/03/28 11:29:49;;;;;;;42.10;38.30;;;19.30;40.40;;;;;;5093215;28;21002;-73
2022/03/28 11:32:17;;;;;;;42.80;38.80;;;19.50;39.70;;;;;;5093115;28;20461;-73
2022/03/28 11:34:52;;;;;;;44.67;40.43;;;19.50;38.90;;;;;;5093063;28;20453;-74
2022/03/28 11:37:22;;;;;;;44.47;40.53;;;19.50;38.80;;;;;;5092837;28;20476;-74
2022/03/28 11:39:55;;;;;;;42.60;38.87;;;19.70;38.40;;;;;;5092613;28;20450;-74
2022/03/28 11:42:25;;;;;;;44.67;40.60;;;19.70;38.20;;;;;;5092766;28;20518;-74
2022/03/28 11:44:53;;;;;;;52.47;46.63;;;19.80;37.90;;;;;;5092624;28;20532;-74
2022/03/28 11:47:21;;;;;;;42.50;38.67;;;19.60;38.40;;;;;;5092620;28;20476;-74
2022/03/28 11:49:59;;;;;;;43.57;39.80;;;19.60;38.60;;;;;;5092588;28;20489;-74
2022/03/28 11:52:27;;;;;;;44.07;40.13;;;19.80;38.30;;;;;;5091939;28;20469;-74
2022/03/28 11:54:55;;;;;;;42.43;38.53;;;20.00;38.10;;;;;;5092497;28;20446;-74
2022/03/28 12:00:16;;;;;;;43.33;39.33;;;19.90;37.80;;;;;;5092481;28;20437;-75
2022/03/28 12:02:53;;;;;;;46.27;42.03;;;19.80;38.10;;;;;;5092184;28;20473;-74
2022/03/28 12:05:29;;;;;;;44.23;40.77;;;20.00;37.60;;;;;;5092445;28;20567;-74
2022/03/28 12:07:57;;;;;;;42.30;38.80;;;20.20;37.10;;;;;;5092431;28;20532;-74
2022/03/28 12:10:25;;;;;;;41.63;37.83;;;20.30;37.00;;;;;;5092207;28;20810;-74
2022/03/28 12:12:58;;;;;;;43.83;40.20;;;20.30;37.00;;;;;;5092388;28;20469;-74
2022/03/28 12:15:30;;;;;;;43.80;40.27;;;20.40;37.10;;;;;;5092321;28;20485;-75
2022/03/28 12:17:59;;;;;;;43.83;40.17;;;20.30;37.30;;;;;;5092525;28;20454;-74
2022/03/28 12:20:28;;;;;;;46.27;41.80;;;20.20;37.60;;;;;;5092124;28;20458;-74
2022/03/28 12:22:55;;;;;;;44.40;40.57;;;20.30;37.60;;;;;;5092334;28;20572;-73
2022/03/28 12:25:24;;;;;;;44.73;40.73;;;20.40;37.30;;;;;;5092400;28;21018;-74
2022/03/28 12:27:54;;;;;;;43.20;39.40;;;20.50;37.60;;;;;;5092355;28;20573;-74
2022/03/28 12:30:27;;;;;;;43.80;39.70;;;20.40;38.20;;;;;;5092151;28;20457;-74
2022/03/28 12:32:55;;;;;;;43.63;39.53;;;20.50;38.20;;;;;;5092380;28;20557;-73
2022/03/28 12:35:23;;;;;;;44.80;40.63;;;20.70;38.40;;;;;;5092626;28;20477;-74
2022/03/28 12:38:01;;;;;;;43.97;39.50;;;20.90;38.40;;;;;;5093697;28;20548;-74
2022/03/28 12:40:29;;;;;;;43.67;39.50;;;20.80;38.80;;;;;;5092184;28;20536;-74
2022/03/28 12:42:58;;;;;;;43.00;38.93;;;20.60;39.10;;;;;;5092281;28;20501;-74
2022/03/28 12:45:26;;;;;;;42.57;38.57;;;20.50;39.60;;;;;;5091915;28;20464;-75
2022/03/28 12:47:57;;;;;;;43.70;39.90;;;20.60;39.60;;;;;;5092212;28;20452;-74